createdAt,value
2018-07-07T07:23:52.500Z,92.80
2018-07-07T07:26:22.494Z,75.40
2018-07-07T07:28:57.258Z,76.70
2018-07-07T07:31:27.634Z,77.10
2018-07-07T07:33:57.937Z,76.40
2018-07-07T07:36:45.873Z,75.70
2018-07-07T07:39:15.524Z,75.40
2018-07-07T07:41:46.679Z,75.40
2018-07-07T07:44:16.471Z,74.60
2018-07-07T07:46:46.462Z,74.30
2018-07-07T07:49:15.991Z,74.20
2018-07-07T07:51:45.586Z,73.90
2018-07-07T07:54:15.428Z,72.80
2018-07-07T07:56:44.930Z,73.20
2018-07-07T07:59:17.052Z,71.80
2018-07-07T08:01:46.559Z,72.20
2018-07-07T08:06:45.108Z,69.20
2018-07-07T08:09:14.997Z,69.70
2018-07-07T08:11:44.601Z,68.80
2018-07-07T08:14:15.937Z,67.10
2018-07-07T08:19:14.696Z,65.60
2018-07-07T08:21:44.302Z,65.10
2018-07-07T08:24:15.456Z,65.20
2018-07-07T08:26:52.283Z,63.40
2018-07-07T08:29:30.198Z,63.90
2018-07-07T08:31:59.645Z,65.70
2018-07-07T08:34:29.291Z,64.80
2018-07-07T08:36:58.925Z,65.30
2018-07-07T08:39:28.421Z,64.40
2018-07-07T08:41:57.977Z,63.80
2018-07-07T08:44:28.342Z,63.10
2018-07-07T08:46:58.700Z,63.90
2018-07-07T08:49:28.754Z,63.70
2018-07-07T08:51:58.816Z,65.00
2018-07-07T08:54:28.733Z,63.30
2018-07-07T08:56:58.957Z,63.30
2018-07-07T08:59:28.541Z,65.80
2018-07-07T09:01:59.097Z,66.40
2018-07-07T09:04:28.673Z,66.70
2018-07-07T09:06:59.120Z,67.00
2018-07-07T09:09:29.123Z,66.90
2018-07-07T09:11:59.089Z,67.50
2018-07-07T09:14:29.638Z,68.80
2018-07-07T09:16:59.772Z,70.30
2018-07-07T09:19:30.242Z,70.10
2018-07-07T09:22:00.370Z,70.10
2018-07-07T09:27:05.203Z,70.50
2018-07-07T09:29:37.635Z,71.60
2018-07-07T09:32:08.502Z,70.00
2018-07-07T09:34:39.148Z,68.90
2018-07-07T09:39:38.250Z,68.10
2018-07-07T09:42:08.511Z,67.70
2018-07-07T09:44:38.418Z,68.20
2018-07-07T09:47:08.624Z,68.60
2018-07-07T09:49:39.532Z,69.30
2018-07-07T09:52:11.143Z,71.00
2018-07-07T09:54:43.315Z,72.40
2018-07-07T09:57:13.567Z,73.70
2018-07-07T09:59:43.773Z,72.70
2018-07-07T10:02:16.459Z,70.70
2018-07-07T10:04:46.813Z,69.80
2018-07-07T10:07:18.590Z,68.50
2018-07-07T10:09:48.601Z,69.60
2018-07-07T10:12:18.998Z,71.00
2018-07-07T10:14:48.049Z,73.00
2018-07-07T10:17:17.605Z,74.00
2018-07-07T10:19:46.193Z,77.00
2018-07-07T10:22:16.196Z,77.00
2018-07-07T10:24:47.493Z,77.30
2018-07-07T10:27:17.712Z,79.40
2018-07-07T10:29:48.009Z,77.90
2018-07-07T10:32:18.233Z,78.70
2018-07-07T10:34:47.781Z,79.10
2018-07-07T10:37:19.576Z,77.70
2018-07-07T10:39:50.157Z,79.20
2018-07-07T10:51:56.046Z,76.80
2018-07-07T10:54:26.350Z,73.60
2018-07-07T10:56:56.489Z,74.40
2018-07-07T10:59:27.653Z,73.90
2018-07-07T11:01:57.192Z,72.80
2018-07-07T11:04:32.050Z,73.60
2018-07-07T11:07:03.077Z,73.70
2018-07-07T11:09:34.034Z,71.10
2018-07-07T11:12:04.013Z,71.30
2018-07-07T11:14:34.243Z,73.00
2018-07-07T11:17:04.340Z,74.80
2018-07-07T11:19:34.228Z,71.90
2018-07-07T11:22:04.964Z,74.00
2018-07-07T11:24:37.200Z,73.40
2018-07-07T11:27:08.400Z,72.80
2018-07-07T11:29:45.707Z,73.80
2018-07-07T11:32:16.630Z,71.70
2018-07-07T11:34:47.245Z,73.30
2018-07-07T11:37:18.272Z,73.10
2018-07-07T11:39:49.450Z,71.50
2018-07-07T11:42:19.198Z,71.50
2018-07-07T11:44:48.748Z,71.30
2018-07-07T11:47:20.403Z,71.50
2018-07-07T11:49:50.155Z,72.50
2018-07-07T11:52:19.703Z,71.60
2018-07-07T11:54:49.839Z,69.70
2018-07-07T11:57:22.579Z,67.70
2018-07-07T11:59:53.036Z,68.80
2018-07-07T12:02:24.945Z,68.20
2018-07-07T12:04:54.905Z,68.90
2018-07-07T12:07:33.537Z,68.00
2018-07-07T12:10:05.140Z,67.10
2018-07-07T12:12:35.906Z,65.30
2018-07-07T12:15:06.597Z,67.20
2018-07-07T12:17:36.973Z,66.10
2018-07-07T12:20:07.627Z,66.70
2018-07-07T12:25:06.934Z,66.60
2018-07-07T12:27:37.573Z,65.30
2018-07-07T12:30:07.993Z,64.20
2018-07-07T12:32:38.105Z,63.50
2018-07-07T12:35:08.104Z,65.20
2018-07-07T12:37:38.453Z,62.80
2018-07-07T12:40:08.410Z,62.40
2018-07-07T12:42:39.646Z,63.30
2018-07-07T12:47:40.972Z,64.50
2018-07-07T12:50:13.685Z,63.90
2018-07-07T12:52:44.410Z,63.10
2018-07-07T12:55:14.429Z,62.20
2018-07-07T12:57:44.527Z,65.90
2018-07-07T13:00:14.493Z,66.00
2018-07-07T13:02:44.405Z,65.00
2018-07-07T13:05:14.301Z,64.70
2018-07-07T13:07:44.185Z,64.10
2018-07-07T13:10:14.509Z,63.50
2018-07-07T13:12:44.385Z,63.90
2018-07-07T13:15:15.029Z,63.90
2018-07-07T13:17:46.619Z,64.10
2018-07-07T13:20:16.793Z,64.00
2018-07-07T13:22:47.785Z,62.60
2018-07-07T13:25:17.967Z,61.60
2018-07-07T13:27:47.708Z,61.00
2018-07-07T13:30:17.586Z,63.60
2018-07-07T13:32:47.617Z,64.20
2018-07-07T13:45:21.428Z,85.40
2018-07-07T13:47:52.713Z,62.90
2018-07-07T13:50:22.625Z,62.80
2018-07-07T13:52:52.514Z,60.00
2018-07-07T13:55:22.825Z,60.10
2018-07-07T13:57:53.136Z,60.40
2018-07-07T14:00:23.587Z,59.20
2018-07-07T14:05:23.030Z,58.90
2018-07-07T14:17:51.828Z,95.50
2018-07-07T14:20:22.518Z,58.40
2018-07-07T14:22:52.644Z,61.10
2018-07-07T14:25:23.442Z,60.30
2018-07-07T14:27:53.894Z,63.30
2018-07-07T14:30:24.064Z,64.40
2018-07-07T14:32:54.379Z,64.40
2018-07-07T14:35:24.420Z,64.10
2018-07-07T14:37:54.594Z,64.40
2018-07-07T14:40:24.373Z,64.80
2018-07-07T14:42:55.549Z,64.50
2018-07-07T14:45:28.222Z,64.20
2018-07-07T14:47:59.682Z,64.30
2018-07-07T14:50:30.029Z,63.90
2018-07-07T14:53:00.592Z,64.00
2018-07-07T14:55:30.553Z,64.80
2018-07-07T14:58:00.474Z,64.70
2018-07-07T15:00:30.818Z,64.80
2018-07-07T15:03:00.901Z,63.70
2018-07-07T15:05:30.952Z,64.80
2018-07-07T15:08:00.666Z,64.60
2018-07-07T15:10:30.637Z,65.80
2018-07-07T15:13:00.547Z,64.20
2018-07-07T15:15:31.109Z,64.00
2018-07-07T15:18:00.981Z,64.20
2018-07-07T15:20:30.862Z,65.80
2018-07-07T15:23:00.857Z,65.10
2018-07-07T15:25:31.078Z,66.30
2018-07-07T15:28:01.305Z,66.30
2018-07-07T15:30:31.580Z,65.50
2018-07-07T15:33:01.434Z,64.20
2018-07-07T15:35:31.442Z,64.80
2018-07-07T15:38:01.930Z,65.10
2018-07-07T15:43:01.367Z,65.60
2018-07-07T15:45:32.072Z,65.10
2018-07-07T15:48:02.233Z,64.80
2018-07-07T15:50:32.085Z,64.50
2018-07-07T15:53:02.602Z,66.70
2018-07-07T15:55:32.780Z,67.20
2018-07-07T15:58:02.886Z,66.60
2018-07-07T16:00:33.221Z,67.20
2018-07-07T16:03:03.195Z,67.20
2018-07-07T16:05:33.467Z,67.60
2018-07-07T16:08:07.962Z,67.90
2018-07-07T16:10:38.457Z,68.50
2018-07-07T16:13:08.329Z,67.50
2018-07-07T16:15:38.245Z,67.60
2018-07-07T16:18:07.852Z,67.50
2018-07-07T16:20:37.955Z,66.70
2018-07-07T16:23:08.301Z,66.20
2018-07-07T16:25:38.699Z,67.90
2018-07-07T16:28:08.416Z,68.50
2018-07-07T16:30:38.013Z,67.60
2018-07-07T16:33:08.555Z,69.30
2018-07-07T16:35:38.505Z,68.40
2018-07-07T16:38:08.638Z,70.30
2018-07-07T16:40:39.113Z,69.40
2018-07-07T16:43:09.025Z,68.90
2018-07-07T16:45:39.715Z,69.10
2018-07-07T16:48:22.535Z,68.50
2018-07-07T16:50:52.710Z,68.60
2018-07-07T16:53:22.709Z,67.90
2018-07-07T16:55:52.611Z,68.00
2018-07-07T16:58:22.429Z,69.00
2018-07-07T17:00:52.362Z,68.30
2018-07-07T17:03:28.736Z,68.70
2018-07-07T17:05:58.667Z,67.70
2018-07-07T17:08:28.553Z,66.60
2018-07-07T17:10:58.503Z,65.90
2018-07-07T17:13:29.109Z,66.00
2018-07-07T17:15:59.728Z,66.60
2018-07-07T17:18:29.779Z,64.00
2018-07-07T17:21:01.713Z,65.40
2018-07-07T17:23:32.355Z,66.70
2018-07-07T17:26:07.081Z,67.80
2018-07-07T17:28:39.253Z,67.10
2018-07-07T17:31:10.497Z,68.00
2018-07-07T17:33:43.480Z,68.00
2018-07-07T17:36:13.325Z,67.80
2018-07-07T17:38:44.241Z,69.20
2018-07-07T17:41:18.857Z,69.40
2018-07-07T17:43:50.846Z,69.40
2018-07-07T17:46:23.500Z,69.80
2018-07-07T17:49:05.408Z,70.20
2018-07-07T17:51:35.934Z,71.80
2018-07-07T17:56:36.218Z,72.30
2018-07-07T17:59:06.231Z,73.10
2018-07-07T18:01:37.325Z,73.70
2018-07-07T18:04:07.681Z,74.40
2018-07-07T18:06:41.555Z,74.90
2018-07-07T18:09:12.224Z,75.00
2018-07-07T18:11:43.927Z,75.30
2018-07-07T18:14:14.069Z,76.50
2018-07-07T18:16:44.212Z,77.30
2018-07-07T18:19:14.098Z,78.90
2018-07-07T18:21:44.340Z,79.40
2018-07-07T18:24:14.256Z,78.50
2018-07-07T18:26:44.352Z,73.40
2018-07-07T18:29:14.402Z,70.20
2018-07-07T18:31:44.321Z,69.60
2018-07-07T18:34:14.404Z,68.80
2018-07-07T18:36:45.468Z,69.30
2018-07-07T18:39:15.473Z,69.10
2018-07-07T18:41:45.513Z,67.70
2018-07-07T18:44:15.189Z,67.70
2018-07-07T18:46:45.388Z,68.40
2018-07-07T18:49:15.263Z,68.40
2018-07-07T18:51:47.297Z,69.20
2018-07-07T18:54:17.443Z,69.10
2018-07-07T18:56:47.889Z,69.70
2018-07-07T18:59:18.452Z,69.60
2018-07-07T19:01:48.483Z,69.80
2018-07-07T19:04:20.949Z,69.60
2018-07-07T19:06:50.753Z,70.20
2018-07-07T19:09:20.793Z,70.70
2018-07-07T19:11:50.721Z,70.60
2018-07-07T19:14:20.260Z,69.80
2018-07-07T19:16:50.625Z,69.60
2018-07-07T19:19:21.004Z,69.00
2018-07-07T19:21:55.821Z,69.60
2018-07-07T19:24:30.796Z,70.10
2018-07-07T19:27:04.655Z,70.80
2018-07-07T19:29:34.642Z,71.30
2018-07-07T19:32:09.280Z,72.00
2018-07-07T19:34:44.247Z,71.50
2018-07-07T19:37:17.537Z,70.90
2018-07-07T19:39:47.722Z,70.00
2018-07-07T19:42:18.129Z,70.70
2018-07-07T19:44:48.150Z,70.40
2018-07-07T19:47:17.976Z,71.20
2018-07-07T19:49:48.366Z,70.10
2018-07-07T19:52:18.786Z,71.00
2018-07-07T19:54:48.844Z,70.80
2018-07-07T19:57:18.856Z,71.60
2018-07-07T19:59:50.151Z,72.40
2018-07-07T20:02:19.943Z,72.80
2018-07-07T20:04:50.892Z,72.30
2018-07-07T20:07:21.771Z,72.80
2018-07-07T20:09:52.612Z,73.40
2018-07-07T20:12:22.368Z,73.90
2018-07-07T20:14:52.301Z,74.10
2018-07-07T20:18:35.132Z,74.50
2018-07-07T20:21:20.986Z,74.70
2018-07-07T20:23:51.274Z,75.30
2018-07-07T20:26:21.654Z,75.20
2018-07-07T20:28:57.452Z,75.50
2018-07-07T20:31:27.325Z,75.60
2018-07-07T20:33:57.245Z,76.50
2018-07-07T20:36:26.794Z,75.10
2018-07-07T20:38:57.145Z,75.10
2018-07-07T20:41:27.005Z,75.10
2018-07-07T20:43:56.833Z,74.50
2018-07-07T20:46:26.346Z,73.10
2018-07-07T20:48:55.869Z,72.60
2018-07-07T20:51:25.733Z,71.70
2018-07-07T20:53:55.280Z,70.80
2018-07-07T20:56:25.358Z,70.70
2018-07-07T20:58:55.717Z,68.90
2018-07-07T21:01:25.364Z,68.20
2018-07-07T21:03:54.926Z,68.40
2018-07-07T21:06:25.345Z,68.80
2018-07-07T21:08:55.817Z,69.00
2018-07-07T21:11:27.346Z,68.30
2018-07-07T21:13:58.085Z,68.70
2018-07-07T21:16:28.514Z,70.40
2018-07-07T21:18:59.145Z,73.60
2018-07-07T21:21:29.589Z,74.40
2018-07-07T21:24:00.609Z,75.30
2018-07-07T21:26:31.013Z,76.40
2018-07-07T21:29:01.165Z,77.40
2018-07-07T21:31:30.837Z,77.50
2018-07-07T21:34:00.565Z,77.50
2018-07-07T21:36:30.278Z,77.40
2018-07-07T21:39:00.605Z,77.00
2018-07-07T21:41:30.309Z,77.30
2018-07-07T21:44:00.644Z,76.70
2018-07-07T21:46:30.995Z,76.70
2018-07-07T21:49:02.855Z,76.90
2018-07-07T21:51:33.133Z,76.30
2018-07-07T21:54:03.126Z,77.40
2018-07-07T21:56:34.193Z,77.10
2018-07-07T21:59:09.220Z,77.00
2018-07-07T22:01:54.204Z,76.40
2018-07-07T22:04:29.699Z,76.60
2018-07-07T22:07:04.614Z,76.30
2018-07-07T22:09:35.593Z,76.50
2018-07-07T22:12:05.777Z,76.10
2018-07-07T22:14:35.694Z,75.80
2018-07-07T22:17:05.700Z,76.10
2018-07-07T22:19:36.260Z,75.90
2018-07-07T22:22:08.025Z,75.50
2018-07-07T22:24:38.638Z,75.90
2018-07-07T22:27:10.182Z,76.00
2018-07-07T22:29:39.970Z,76.10
2018-07-07T22:32:15.304Z,75.90
2018-07-07T22:34:45.692Z,75.50
2018-07-07T22:37:16.330Z,75.10
2018-07-07T22:39:46.556Z,74.60
2018-07-07T22:42:17.924Z,75.10
2018-07-07T22:44:48.527Z,75.30
2018-07-07T22:47:18.479Z,76.10
2018-07-07T22:49:48.537Z,77.30
2018-07-07T22:52:18.217Z,77.80
2018-07-07T22:54:48.153Z,78.50
2018-07-07T22:57:17.834Z,79.00
2018-07-07T22:59:48.359Z,80.40
2018-07-07T23:02:18.149Z,79.70
2018-07-07T23:04:48.065Z,80.10
2018-07-07T23:07:18.226Z,80.30
2018-07-07T23:09:48.177Z,80.20
2018-07-07T23:12:18.745Z,80.50
2018-07-07T23:14:49.136Z,80.40
2018-07-07T23:17:19.009Z,80.30
2018-07-07T23:19:49.522Z,80.70
2018-07-07T23:22:31.294Z,81.10
2018-07-07T23:25:01.269Z,81.40
2018-07-07T23:30:00.698Z,81.20
2018-07-07T23:32:31.093Z,81.00
